Time;durP1;ratioP1;P1;durP2;ratioP2;P2;SDS_P1;SDS_P2;PMS_P1;PMS_P2;Temp;Humidity;BMP_temperature;BMP_pressure;BME280_temperature;BME280_humidity;BME280_pressure;Samples;Min_cycle;Max_cycle;Signal;HPM_P1;HPM_P2
2021/05/04 00:04:45;;;;;;;1999.90;999.90;;;10.50;99.90;;;;;;4900570;29;20692;-92
2021/05/04 00:07:44;;;;;;;;;;;;;;;;;;;;;
2021/05/04 00:14:12;;;;;;;1999.90;999.90;;;10.10;99.90;;;;;;4926689;29;20241;-92
2021/05/04 00:23:47;;;;;;;1999.90;999.90;;;9.60;99.90;;;;;;4897021;29;20186;-93
2021/05/04 00:26:46;;;;;;;1999.90;999.90;;;9.50;99.90;;;;;;4954299;28;20608;-92
2021/05/04 00:29:27;;;;;;;1999.90;999.90;;;9.40;99.90;;;;;;4938340;29;20186;-92
2021/05/04 00:35:15;;;;;;;1999.90;999.90;;;9.20;99.90;;;;;;4933967;29;20264;-91
2021/05/04 00:37:43;;;;;;;1999.90;999.90;;;9.00;99.90;;;;;;4954520;29;20209;-93
2021/05/04 00:40:33;;;;;;;1999.90;999.90;;;8.90;99.90;;;;;;4954976;28;20165;-93
2021/05/04 00:43:10;;;;;;;1999.90;999.90;;;8.90;99.90;;;;;;4939130;29;20660;-92
2021/05/04 00:45:41;;;;;;;1999.90;999.90;;;8.80;99.90;;;;;;4954368;29;20199;-92
2021/05/04 00:48:20;;;;;;;1999.90;999.90;;;8.70;99.90;;;;;;4954160;29;20264;-93
2021/05/04 00:50:58;;;;;;;1999.90;999.90;;;8.70;99.90;;;;;;4955163;29;20516;-91
2021/05/04 00:53:35;;;;;;;1999.90;999.90;;;8.70;99.90;;;;;;4954522;29;20185;-92
2021/05/04 00:56:11;;;;;;;1999.90;999.90;;;8.60;99.90;;;;;;4954054;28;20211;-91
2021/05/04 00:58:49;;;;;;;1999.90;999.90;;;8.60;99.90;;;;;;4951460;29;20592;-92
2021/05/04 01:01:18;;;;;;;1999.90;999.90;;;8.50;99.90;;;;;;4954047;29;20165;-92
2021/05/04 01:03:52;;;;;;;1999.90;999.90;;;8.50;99.90;;;;;;4953879;28;20696;-92
2021/05/04 01:06:25;;;;;;;1999.90;999.90;;;8.50;99.90;;;;;;4954051;29;20180;-92
2021/05/04 01:08:53;;;;;;;1999.90;999.90;;;8.40;99.90;;;;;;4954819;28;20188;-91
2021/05/04 01:11:28;;;;;;;1999.90;999.90;;;8.40;99.90;;;;;;4954071;29;20173;-92
2021/05/04 01:14:07;;;;;;;1999.90;999.90;;;8.30;99.90;;;;;;4954274;29;20160;-91
2021/05/04 01:16:50;;;;;;;1999.90;999.90;;;8.20;99.90;;;;;;4953852;29;20205;-91
2021/05/04 01:19:19;;;;;;;1999.90;999.90;;;8.20;99.90;;;;;;4953843;29;20180;-91
2021/05/04 01:21:49;;;;;;;1999.90;999.90;;;8.20;99.90;;;;;;4953064;29;20637;-90
2021/05/04 01:24:20;;;;;;;1999.90;999.90;;;8.20;99.90;;;;;;4953395;29;20178;-91
2021/05/04 01:26:47;;;;;;;1999.90;999.90;;;8.20;99.90;;;;;;4953414;29;20172;-92
2021/05/04 01:29:18;;;;;;;1999.90;999.90;;;8.20;99.90;;;;;;4953436;29;20645;-91
2021/05/04 01:31:52;;;;;;;1999.90;999.90;;;8.20;99.90;;;;;;4953445;29;20174;-93
2021/05/04 01:37:19;;;;;;;1999.90;999.90;;;8.20;99.90;;;;;;4938592;28;20233;-90
2021/05/04 01:39:47;;;;;;;1999.90;999.90;;;8.20;99.90;;;;;;4956183;28;20594;-90
2021/05/04 01:42:22;;;;;;;1999.90;999.90;;;8.20;99.90;;;;;;4961446;29;20170;-90
2021/05/04 01:44:57;;;;;;;1999.90;999.90;;;8.20;99.90;;;;;;4953957;29;20161;-93
2021/05/04 01:47:25;;;;;;;1999.90;999.90;;;8.20;99.90;;;;;;4953632;28;20188;-93
2021/05/04 01:49:57;;;;;;;1999.90;999.90;;;8.20;99.90;;;;;;4952957;29;20177;-90
2021/05/04 01:52:22;;;;;;;1999.90;999.90;;;8.30;99.90;;;;;;4952942;29;20173;-91
2021/05/04 01:54:57;;;;;;;1999.90;999.90;;;8.30;99.90;;;;;;4952809;29;20177;-90
2021/05/04 01:57:28;;;;;;;1999.90;999.90;;;8.30;99.90;;;;;;4952995;29;20205;-93
2021/05/04 02:00:02;;;;;;;1999.90;999.90;;;8.30;99.90;;;;;;4952916;29;20177;-91
2021/05/04 02:02:37;;;;;;;1999.90;999.90;;;8.40;99.90;;;;;;4953512;29;20201;-91
2021/05/04 02:05:08;;;;;;;1999.90;999.90;;;8.40;99.90;;;;;;4953369;29;20165;-92
2021/05/04 02:07:39;;;;;;;1999.90;999.90;;;8.40;99.90;;;;;;4953056;28;20532;-91
2021/05/04 02:10:11;;;;;;;1999.90;999.90;;;8.50;99.90;;;;;;4952851;29;20173;-92
2021/05/04 02:12:52;;;;;;;1999.90;999.90;;;8.50;99.90;;;;;;4952672;29;20622;-90
2021/05/04 02:15:18;;;;;;;1999.90;999.90;;;8.60;99.90;;;;;;4952800;29;20185;-91
2021/05/04 02:17:46;;;;;;;1999.90;999.90;;;8.60;99.90;;;;;;4952602;28;20548;-91
2021/05/04 02:20:13;;;;;;;1999.90;999.90;;;8.60;99.90;;;;;;4952508;28;20169;-90
2021/05/04 02:22:41;;;;;;;1999.90;999.90;;;8.60;99.90;;;;;;4952364;29;20186;-91
2021/05/04 02:25:13;;;;;;;1999.90;999.90;;;8.60;99.90;;;;;;4953012;28;20173;-90
2021/05/04 02:27:41;;;;;;;1999.90;999.90;;;8.70;99.90;;;;;;4952560;29;20263;-92
2021/05/04 02:30:28;;;;;;;1999.90;999.90;;;8.70;99.90;;;;;;4953008;28;20181;-91
2021/05/04 02:32:56;;;;;;;1999.90;999.90;;;8.70;99.90;;;;;;4936365;29;20177;-91
2021/05/04 02:35:24;;;;;;;1999.90;999.90;;;8.70;99.90;;;;;;4952295;29;20268;-91
2021/05/04 02:37:53;;;;;;;1999.90;999.90;;;8.80;99.90;;;;;;4952345;29;20227;-92
2021/05/04 02:40:35;;;;;;;1999.90;999.90;;;8.80;99.90;;;;;;4952186;29;20526;-91
2021/05/04 02:43:05;;;;;;;1999.90;999.90;;;8.80;99.90;;;;;;4952330;29;20256;-91
2021/05/04 02:45:34;;;;;;;1999.90;999.90;;;8.80;99.90;;;;;;4952104;28;20169;-92
2021/05/04 02:48:29;;;;;;;1999.90;999.90;;;8.80;99.90;;;;;;4952229;28;20193;-92
2021/05/04 02:51:02;;;;;;;1999.90;999.90;;;8.80;99.90;;;;;;4952434;28;20248;-91
2021/05/04 02:53:50;;;;;;;1999.90;999.90;;;8.80;99.90;;;;;;4953057;29;20175;-92
2021/05/04 02:56:47;;;;;;;1999.90;999.90;;;8.80;99.90;;;;;;4952460;29;20713;-93
2021/05/04 02:59:53;;;;;;;1999.90;999.90;;;8.90;99.90;;;;;;4935902;28;20532;-92
2021/05/04 03:03:10;;;;;;;1999.90;999.90;;;8.90;99.90;;;;;;4935973;29;20181;-92
2021/05/04 03:05:35;;;;;;;1999.90;999.90;;;8.90;99.90;;;;;;4935726;29;20181;-91
2021/05/04 03:08:19;;;;;;;;;;;;;;;;;;;;;
2021/05/04 03:14:27;;;;;;;;;;;;;;;;;;;;;
2021/05/04 03:20:14;;;;;;;;;;;;;;;;;;;;;
2021/05/04 03:22:53;;;;;;;1999.90;999.90;;;9.10;99.90;;;;;;4941593;29;20382;-92
2021/05/04 03:25:33;;;;;;;1999.90;999.90;;;9.10;99.90;;;;;;4956903;29;20277;-92
2021/05/04 03:29:01;;;;;;;1999.90;999.90;;;9.10;99.90;;;;;;4964505;29;20205;-92
2021/05/04 03:32:00;;;;;;;1999.90;999.90;;;9.10;99.90;;;;;;4940284;28;20547;-92
2021/05/04 03:37:31;;;;;;;1999.90;999.90;;;9.20;99.90;;;;;;4940289;29;20255;-92
2021/05/04 03:40:19;;;;;;;;;;;;;;;;;;;;;
2021/05/04 03:43:06;;;;;;;1999.90;999.90;;;9.40;99.90;;;;;;4940629;29;20146;-93
2021/05/04 03:45:58;;;;;;;1999.90;999.90;;;9.40;99.90;;;;;;4956437;29;20166;-92
2021/05/04 03:48:34;;;;;;;1999.90;999.90;;;9.30;99.90;;;;;;4947771;29;20591;-92
2021/05/04 03:51:09;;;;;;;1999.90;999.90;;;9.30;99.90;;;;;;4955592;29;20161;-92
2021/05/04 03:54:40;;;;;;;;;;;;;;;;;;;;;
2021/05/04 04:04:13;;;;;;;;;;;;;;;;;;;;;
2021/05/04 04:07:14;;;;;;;1999.90;999.90;;;9.30;99.90;;;;;;4940514;29;20640;-92
2021/05/04 04:10:11;;;;;;;1999.90;999.90;;;9.30;99.90;;;;;;4955035;29;20181;-92
2021/05/04 04:16:08;;;;;;;1999.90;999.90;;;9.20;99.90;;;;;;4919385;29;20265;-95
2021/05/04 04:18:44;;;;;;;1999.90;999.90;;;9.00;99.90;;;;;;4919673;29;20210;-93
2021/05/04 04:21:54;;;;;;;;;;;;;;;;;;;;;
2021/05/04 04:28:27;;;;;;;1999.90;999.90;;;8.60;99.90;;;;;;4910458;29;20185;-93
2021/05/04 04:34:26;;;;;;;;;;;;;;;;;;;;;
2021/05/04 04:37:23;;;;;;;1999.90;999.90;;;8.30;99.90;;;;;;4939629;29;20699;-94
2021/05/04 05:22:55;;;;;;;1999.90;999.90;;;8.60;99.90;;;;;;5367219;23;20593;-91
2021/05/04 05:25:20;;;;;;;1999.90;999.90;;;8.70;99.90;;;;;;4959785;28;20184;-89
2021/05/04 05:27:46;;;;;;;1999.90;999.90;;;8.70;99.90;;;;;;4958899;28;20175;-89
2021/05/04 05:30:15;;;;;;;1999.90;999.90;;;8.70;99.90;;;;;;4975664;28;20168;-89
2021/05/04 05:33:02;;;;;;;1999.90;999.90;;;8.80;99.90;;;;;;4975774;28;20266;-93
2021/05/04 05:35:30;;;;;;;1999.90;999.90;;;8.80;99.90;;;;;;4979972;28;20176;-89
2021/05/04 05:37:58;;;;;;;1999.90;999.90;;;8.80;99.90;;;;;;4987108;28;20200;-91
2021/05/04 05:41:05;;;;;;;1999.90;999.90;;;8.80;99.90;;;;;;4975378;28;20164;-93
2021/05/04 05:43:33;;;;;;;1999.90;999.90;;;8.80;99.90;;;;;;4959637;28;20246;-89
2021/05/04 05:46:24;;;;;;;1999.90;999.90;;;8.80;99.90;;;;;;4976404;28;20620;-91
2021/05/04 05:52:18;;;;;;;1999.90;999.90;;;8.80;99.90;;;;;;4915600;29;20186;-93
2021/05/04 05:54:50;;;;;;;1999.90;999.90;;;8.80;99.90;;;;;;4979135;28;20176;-92
2021/05/04 05:58:19;;;;;;;;;;;;;;;;;;;;;
2021/05/04 06:00:48;;;;;;;1999.90;999.90;;;8.90;99.90;;;;;;4916668;29;20194;-92
2021/05/04 10:09:46;;;;;;;;;;;;;;;;;;;;;
2021/05/04 10:12:16;;;;;;;1999.90;999.90;;;11.40;99.90;;;;;;4915259;29;20209;-90
2021/05/04 10:14:52;;;;;;;1999.90;999.90;;;11.10;99.90;;;;;;4931659;29;20178;-92
2021/05/04 10:17:21;;;;;;;1999.90;999.90;;;11.10;99.90;;;;;;4932998;29;20201;-90
2021/05/04 10:19:47;;;;;;;1999.90;999.90;;;11.00;99.90;;;;;;4933759;29;20592;-91
2021/05/04 10:22:19;;;;;;;1999.90;999.90;;;10.90;99.90;;;;;;4933395;29;20177;-92
2021/05/04 10:25:01;;;;;;;;;;;;;;;;;;;;;
2021/05/04 10:27:40;;;;;;;;;;;;;;;;;;;;;
2021/05/04 10:30:17;;;;;;;1999.90;999.90;;;11.10;99.90;;;;;;4918398;29;20170;-92
2021/05/04 10:33:02;;;;;;;1999.90;999.90;;;11.30;99.90;;;;;;4933075;29;20641;-90
2021/05/04 10:35:49;;;;;;;1999.90;999.90;;;11.40;99.90;;;;;;4932629;29;20244;-92
2021/05/04 10:38:17;;;;;;;1999.90;999.90;;;11.60;99.90;;;;;;4917434;29;20681;-92
2021/05/04 10:41:15;;;;;;;1999.90;999.90;;;12.00;99.90;;;;;;4932362;29;20182;-91
2021/05/04 10:43:42;;;;;;;1999.90;999.90;;;11.90;99.90;;;;;;4932737;29;20563;-90
2021/05/04 10:46:11;;;;;;;1999.90;999.90;;;12.00;99.90;;;;;;4932249;29;20272;-90
2021/05/04 10:48:41;;;;;;;1999.90;999.90;;;12.10;99.90;;;;;;4932007;29;20201;-91
2021/05/04 10:51:45;;;;;;;;;;;;;;;;;;;;;
2021/05/04 10:54:45;;;;;;;;;;;;;;;;;;;;;
2021/05/04 11:28:15;;;;;;;1999.90;999.90;;;12.70;99.90;;;;;;5565215;23;20248;-88
2021/05/04 11:30:42;;;;;;;1999.90;999.90;;;12.80;99.90;;;;;;4935155;29;20678;-89
2021/05/04 11:33:31;;;;;;;1999.90;999.90;;;13.10;99.90;;;;;;4927192;29;20213;-91
2021/05/04 11:35:58;;;;;;;1999.90;999.90;;;13.20;99.90;;;;;;4928999;29;20280;-89
2021/05/04 11:38:35;;;;;;;1999.90;999.90;;;12.90;99.90;;;;;;4932492;29;20671;-90
2021/05/04 11:41:20;;;;;;;;;;;;;;;;;;;;;
2021/05/04 11:43:52;;;;;;;1999.90;999.90;;;12.40;99.90;;;;;;4938335;29;20181;-88
2021/05/04 11:46:28;;;;;;;1999.90;999.90;;;12.60;99.90;;;;;;4932207;29;20289;-88
2021/05/04 11:49:05;;;;;;;1999.90;999.90;;;12.60;99.90;;;;;;4937249;29;20265;-88
2021/05/04 11:51:31;;;;;;;1999.90;999.90;;;12.60;99.90;;;;;;4938128;29;20185;-88
2021/05/04 20:58:10;;;;;;;1999.90;999.90;;;6.30;99.90;;;;;;4879771;29;20219;-89
2021/05/04 21:01:05;;;;;;;1999.90;999.90;;;6.40;99.90;;;;;;4880933;29;20226;-90
2021/05/04 21:03:53;;;;;;;;;;;;;;;;;;;;;
2021/05/04 21:06:41;;;;;;;1999.90;999.90;;;6.50;99.90;;;;;;4881610;29;20183;-89
2021/05/04 21:09:13;;;;;;;1999.90;999.90;;;6.60;99.90;;;;;;4896804;29;20219;-89
2021/05/04 21:14:15;;;;;;;1999.90;999.90;;;6.70;99.90;;;;;;4882267;29;20278;-89
2021/05/04 21:19:34;;;;;;;1999.90;999.90;;;6.80;99.90;;;;;;4881874;29;20191;-89
2021/05/04 21:22:57;;;;;;;1999.90;999.90;;;6.80;99.90;;;;;;4880760;29;20232;-89
2021/05/04 21:27:55;;;;;;;1999.90;999.90;;;6.70;99.90;;;;;;4882007;29;20234;-89
2021/05/04 21:30:36;;;;;;;1999.90;999.90;;;6.70;99.90;;;;;;4880848;29;20183;-90
2021/05/04 21:33:08;;;;;;;1999.90;999.90;;;6.60;99.90;;;;;;4880748;29;20182;-89
2021/05/04 21:36:10;;;;;;;1999.90;999.90;;;6.60;99.90;;;;;;4880195;29;20262;-89
2021/05/04 21:38:49;;;;;;;1999.90;999.90;;;6.60;99.90;;;;;;4880387;29;20217;-88
2021/05/04 21:41:21;;;;;;;1999.90;999.90;;;6.60;99.90;;;;;;4880106;29;20175;-88
2021/05/04 21:43:58;;;;;;;1999.90;999.90;;;6.60;99.90;;;;;;4895613;29;20207;-89
2021/05/04 21:46:24;;;;;;;1999.90;999.90;;;6.60;99.90;;;;;;4895808;29;20179;-88
2021/05/04 21:49:00;;;;;;;1999.90;999.90;;;6.50;99.90;;;;;;4880961;29;20215;-89
2021/05/04 21:51:26;;;;;;;1999.90;999.90;;;6.50;99.90;;;;;;4879927;29;20178;-89
2021/05/04 21:54:01;;;;;;;1999.90;999.90;;;6.50;99.90;;;;;;4879947;29;20639;-89
2021/05/04 21:56:30;;;;;;;1999.90;999.90;;;6.40;99.90;;;;;;4895253;29;20246;-88
2021/05/04 21:58:56;;;;;;;1999.90;999.90;;;6.50;99.90;;;;;;4895550;29;20182;-88
2021/05/04 22:01:24;;;;;;;1999.90;999.90;;;6.50;99.90;;;;;;4880490;29;20520;-88
2021/05/04 22:07:37;;;;;;;1999.90;999.90;;;6.50;99.90;;;;;;4873721;29;20302;-88
2021/05/04 22:10:34;;;;;;;1999.90;999.90;;;6.30;99.90;;;;;;4894915;29;20179;-89
2021/05/04 22:35:26;;;;;;;1999.90;999.90;;;5.90;99.90;;;;;;4880392;29;20222;-89
2021/05/04 22:38:00;;;;;;;1999.90;999.90;;;5.80;99.90;;;;;;4879174;29;20576;-89
2021/05/04 22:40:52;;;;;;;1999.90;999.90;;;5.80;99.90;;;;;;4879728;29;20176;-89
2021/05/04 22:43:24;;;;;;;1999.90;999.90;;;5.90;99.90;;;;;;4880257;29;20227;-89
2021/05/04 22:46:24;;;;;;;1999.90;999.90;;;5.90;99.90;;;;;;4879365;29;20191;-89
2021/05/04 22:49:51;;;;;;;1999.90;999.90;;;5.90;99.90;;;;;;4879380;29;20685;-89
2021/05/04 23:16:45;;;;;;;1999.90;999.90;;;5.90;99.90;;;;;;4880174;29;20198;-89
2021/05/04 23:19:24;;;;;;;1999.90;999.90;;;5.80;99.90;;;;;;4884202;29;20184;-90
2021/05/04 23:21:59;;;;;;;1999.90;999.90;;;5.80;99.90;;;;;;4894562;29;20206;-90
2021/05/04 23:24:31;;;;;;;1999.90;999.90;;;5.80;99.90;;;;;;4878932;29;20178;-89
2021/05/04 23:27:01;;;;;;;1999.90;999.90;;;5.90;99.90;;;;;;4894749;29;20172;-90
2021/05/04 23:29:34;;;;;;;1999.90;999.90;;;5.90;99.90;;;;;;4878531;29;20274;-89
2021/05/04 23:32:00;;;;;;;1999.90;999.90;;;6.00;99.90;;;;;;4894358;29;20179;-90
2021/05/04 23:34:32;;;;;;;1999.90;999.90;;;6.00;99.90;;;;;;4879838;29;20274;-91
2021/05/04 23:37:01;;;;;;;1999.90;999.90;;;6.00;99.90;;;;;;4882871;29;20639;-91
2021/05/04 23:39:29;;;;;;;1999.90;999.90;;;6.00;99.90;;;;;;4882956;29;20180;-91
2021/05/04 23:42:12;;;;;;;1999.90;999.90;;;6.00;99.90;;;;;;4882749;29;20190;-89
2021/05/04 23:44:47;;;;;;;1999.90;999.90;;;6.00;99.90;;;;;;4897944;29;20187;-89
2021/05/04 23:47:32;;;;;;;1999.90;999.90;;;5.90;99.90;;;;;;4881990;29;20178;-89
2021/05/04 23:50:03;;;;;;;1999.90;999.90;;;5.80;99.90;;;;;;4898023;29;20647;-90
2021/05/04 23:52:50;;;;;;;;;;;;;;;;;;;;;
2021/05/04 23:55:28;;;;;;;1999.90;999.90;;;5.60;99.90;;;;;;4883521;29;20186;-90
2021/05/04 23:57:56;;;;;;;1999.90;999.90;;;5.50;99.90;;;;;;4898009;29;20199;-91
